Airfield :
LOGIN :

Register | Disclaimer

   EN    FR    IT 

 










Legend :    VFR   Marginal VFR   IFR   Intensive IFR   Very Intensive IFR
Visi :
Ceiling :
>= 8 km
>= 3000ft
5 to 8 km
1000 to 3000 ft
1500m to 5 km
500 to 1000 ft
800 to 1500m
200 to 500 ft
< 800m
< 200 ft
Symbols :   Thunderstorms  Fog  Heavy snow  Heavy precipitations  Wind > 20 kt
SIGMETs :     Misc.  Thunderstorms  Icing  Turbulence  Mountain Waves  Volcanic Ashes






- Airport Elevation : 74 ft
- IATA code : NDZ


ETMN - Cuxhaven Nordholz Sea AB

CURRENT METAR :
  • 031920Z 26003KT 9999 FEW025 FEW030CB SCT180 16/14 Q1017 BLU+

EXPIRED METARs :
  • 031820Z VRB03KT 9999 FEW025 FEW035CB SCT060 BKN110 16/14 Q1017 RETS BLU
  • 030520Z 25002KT 9999 FEW073 BKN100 17/13 Q1016 BLU
  • 031758Z 01006KT 9999 FEW025 FEW035CB BKN060 BKN160 16/14 Q1017 RETS BLU
  • 031720Z 28010G24KT 6000 -TSRA BKN030CB 15/13 Q1018 RERA WHT
  • 031710Z 30006G18KT 2000 +TSRA BKN028CB 18/13 Q1017 YLO

Expired Forecast.



MET'MAP, your aeronautical weather chart ! - Copyright ORBIFLY December 2007 - Disclaimer

ORBIFLY MET'MAP TEAM :

Programming & Development : Alexandra Zaïnal
Original concept : Baudouin d'Aumeries
Technical & hardware support : Manuel Goepfert
Assistance : Marc-Olivier Méhu




SOURCES & CREDITS :

   NOAA